Time;durP1;ratioP1;P1;durP2;ratioP2;P2;SDS_P1;SDS_P2;PMS_P1;PMS_P2;Temp;Humidity;BMP_temperature;BMP_pressure;BME280_temperature;BME280_humidity;BME280_pressure;Samples;Min_cycle;Max_cycle;Signal;HPM_P1;HPM_P2
2023/10/10 00:01:42;;;;;;;12.40;8.35;;;15.60;99.90;;;;;;7376150;19;20025;-61
2023/10/10 00:04:10;;;;;;;;;;;15.50;99.90;;;;;;7366800;19;20745;-62
2023/10/10 00:06:41;;;;;;;12.85;9.00;;;15.60;99.90;;;;;;7374179;19;19933;-61
2023/10/10 00:09:11;;;;;;;16.15;9.75;;;15.60;99.90;;;;;;7373699;19;20058;-61
2023/10/10 00:11:45;;;;;;;15.82;10.18;;;15.60;99.90;;;;;;7376239;19;20015;-61
2023/10/10 00:14:19;;;;;;;16.27;10.10;;;15.60;99.90;;;;;;7375091;19;20094;-62
2023/10/10 00:16:54;;;;;;;12.98;8.23;;;15.60;99.90;;;;;;7369711;19;20113;-62
2023/10/10 00:19:29;;;;;;;14.40;8.90;;;15.60;99.90;;;;;;7375997;19;20773;-62
2023/10/10 00:21:57;;;;;;;13.77;8.82;;;15.60;99.90;;;;;;7377411;19;20022;-62
2023/10/10 00:24:30;;;;;;;14.38;9.80;;;15.60;99.90;;;;;;7374038;19;20022;-61
2023/10/10 00:27:35;;;;;;;14.35;9.93;;;15.60;99.90;;;;;;7371719;19;20018;-61
2023/10/10 00:29:53;;;;;;;14.95;10.40;;;15.60;99.90;;;;;;7372501;19;20026;-63
2023/10/10 00:32:25;;;;;;;18.10;10.75;;;15.60;99.90;;;;;;7375080;19;20068;-62
2023/10/10 00:34:52;;;;;;;15.55;9.70;;;15.60;99.90;;;;;;7370577;19;20026;-62
2023/10/10 00:37:25;;;;;;;15.98;10.68;;;15.60;99.90;;;;;;7373632;19;20025;-64
2023/10/10 00:39:54;;;;;;;18.42;10.32;;;15.60;99.90;;;;;;7375032;19;20078;-64
2023/10/10 00:42:36;;;;;;;13.18;9.15;;;15.60;99.90;;;;;;7371198;19;20062;-63
2023/10/10 00:45:04;;;;;;;;;;;15.60;99.90;;;;;;7373233;19;20018;-62
2023/10/10 00:47:38;;;;;;;12.82;8.57;;;15.60;99.90;;;;;;7371550;19;19922;-62
2023/10/10 00:50:08;;;;;;;13.18;9.85;;;15.60;99.90;;;;;;7372865;19;20019;-62
2023/10/10 00:52:36;;;;;;;11.30;8.80;;;15.60;99.90;;;;;;7372673;19;20361;-64
2023/10/10 00:55:06;;;;;;;15.43;9.70;;;15.60;99.90;;;;;;7370706;19;20360;-62
2023/10/10 00:57:36;;;;;;;11.25;8.75;;;15.60;99.90;;;;;;7367915;19;20423;-64
2023/10/10 01:00:10;;;;;;;14.48;8.77;;;15.60;99.90;;;;;;7372093;19;20011;-62
2023/10/10 01:02:39;;;;;;;16.05;8.93;;;15.60;99.90;;;;;;7372796;19;20500;-62
2023/10/10 01:05:12;;;;;;;14.30;8.88;;;15.60;99.90;;;;;;7373377;19;20014;-62
2023/10/10 01:07:40;;;;;;;11.77;8.20;;;15.60;99.90;;;;;;7368991;19;20018;-62
2023/10/10 01:10:16;;;;;;;12.68;8.70;;;15.60;99.90;;;;;;7371723;19;20018;-63
2023/10/10 01:12:46;;;;;;;14.30;8.20;;;15.60;99.90;;;;;;7371806;19;20021;-63
2023/10/10 01:15:33;;;;;;;13.38;8.25;;;15.60;99.90;;;;;;7372574;19;20483;-64
2023/10/10 01:18:00;;;;;;;14.60;8.90;;;15.60;99.90;;;;;;7374716;19;20632;-62
2023/10/10 01:20:45;;;;;;;12.93;8.48;;;15.60;99.90;;;;;;7370405;19;20026;-63
2023/10/10 01:23:18;;;;;;;12.25;7.53;;;15.60;99.90;;;;;;7381856;19;20014;-63
2023/10/10 01:25:47;;;;;;;12.57;7.97;;;15.60;99.90;;;;;;7379403;19;20030;-62
2023/10/10 01:33:35;;;;;;;13.05;8.48;;;15.70;99.90;;;;;;7379726;19;20022;-63
2023/10/10 01:36:13;;;;;;;12.00;8.13;;;15.70;99.90;;;;;;7380399;19;20133;-62
2023/10/10 01:38:41;;;;;;;10.52;7.28;;;15.70;99.90;;;;;;7370651;19;20014;-62
2023/10/10 01:41:24;;;;;;;12.45;7.88;;;15.60;99.90;;;;;;7374433;19;20874;-64
2023/10/10 01:43:53;;;;;;;15.43;8.32;;;15.60;99.90;;;;;;7382762;19;20972;-62
2023/10/10 01:46:29;;;;;;;14.27;9.30;;;15.70;99.90;;;;;;7375090;19;20048;-61
2023/10/10 01:48:56;;;;;;;13.00;7.63;;;15.70;99.90;;;;;;7379074;19;20033;-61
2023/10/10 01:51:25;;;;;;;12.10;8.40;;;15.70;99.90;;;;;;7375045;19;20113;-61
2023/10/10 01:53:57;;;;;;;13.27;8.40;;;15.60;99.90;;;;;;7378749;19;20029;-62
2023/10/10 01:56:26;;;;;;;11.98;9.32;;;15.70;99.90;;;;;;7373532;19;20037;-62
2023/10/10 01:58:54;;;;;;;12.18;8.95;;;15.70;99.90;;;;;;7372129;19;20011;-62
2023/10/10 02:01:23;;;;;;;12.52;8.02;;;15.70;99.90;;;;;;7376351;19;20014;-62
2023/10/10 02:03:52;;;;;;;12.05;8.07;;;15.70;99.90;;;;;;7380002;19;20039;-62
2023/10/10 02:06:26;;;;;;;10.98;7.95;;;15.70;99.90;;;;;;7373623;19;20450;-62
2023/10/10 02:08:52;;;;;;;12.95;8.02;;;15.70;99.90;;;;;;7379001;19;20033;-62
2023/10/10 02:11:21;;;;;;;10.38;7.75;;;15.70;99.90;;;;;;7376358;19;20033;-62
2023/10/10 02:13:48;;;;;;;11.35;7.60;;;15.70;99.90;;;;;;7378505;19;20018;-62
2023/10/10 02:16:18;;;;;;;10.32;8.40;;;15.70;99.90;;;;;;7375251;19;20031;-63
2023/10/10 02:18:51;;;;;;;11.30;8.63;;;15.70;99.90;;;;;;7376618;19;20030;-62
2023/10/10 02:26:55;;;;;;;11.32;8.07;;;15.70;99.90;;;;;;7376448;19;20505;-62
2023/10/10 02:34:36;;;;;;;12.48;8.63;;;15.60;99.90;;;;;;7377144;19;20335;-62
2023/10/10 02:42:33;;;;;;;10.32;8.63;;;15.50;99.90;;;;;;7373312;19;20056;-63
2023/10/10 02:45:28;;;;;;;14.38;8.98;;;15.50;99.90;;;;;;7371619;19;20019;-61
2023/10/10 02:47:54;;;;;;;9.90;8.63;;;15.50;99.90;;;;;;7374585;19;20026;-62
2023/10/10 02:50:40;;;;;;;12.55;9.23;;;15.40;99.90;;;;;;7375987;19;20379;-61
2023/10/10 02:53:08;;;;;;;9.52;8.27;;;15.40;99.90;;;;;;7375947;19;20020;-62
2023/10/10 02:55:41;;;;;;;14.18;9.43;;;15.30;99.90;;;;;;7375326;19;20575;-62
2023/10/10 02:58:20;;;;;;;14.85;8.82;;;15.30;99.90;;;;;;7374544;19;20928;-62
2023/10/10 03:00:52;;;;;;;14.20;9.57;;;15.20;99.90;;;;;;7375095;19;20837;-62
2023/10/10 03:03:20;;;;;;;11.02;8.85;;;15.20;99.90;;;;;;7375722;19;20026;-62
2023/10/10 03:05:50;;;;;;;14.55;9.18;;;15.10;99.90;;;;;;7375824;19;20026;-62
2023/10/10 03:11:01;;;;;;;11.65;9.70;;;15.10;99.90;;;;;;7373538;19;20651;-63
2023/10/10 03:13:36;;;;;;;12.27;9.98;;;15.00;99.90;;;;;;7372791;19;20384;-62
2023/10/10 03:27:01;;;;;;;16.27;10.35;;;14.80;99.90;;;;;;7375446;19;20416;-62
2023/10/10 03:29:37;;;;;;;14.27;10.48;;;14.70;99.90;;;;;;7372328;19;20029;-62
2023/10/10 03:32:59;;;;;;;16.10;10.38;;;14.70;99.90;;;;;;7375293;19;20026;-62
2023/10/10 03:35:04;;;;;;;16.10;11.00;;;14.80;99.90;;;;;;7374051;19;20048;-62
2023/10/10 03:37:40;;;;;;;16.85;11.50;;;14.80;99.90;;;;;;7371855;19;20381;-62
2023/10/10 05:24:51;;;;;;;33.40;23.35;;;15.10;99.90;;;;;;7378195;19;20006;-62
2023/10/10 05:27:29;;;;;;;28.65;23.98;;;15.00;99.90;;;;;;7377035;19;20528;-61
2023/10/10 05:29:56;;;;;;;30.08;21.25;;;15.00;99.90;;;;;;7378960;19;20017;-61
2023/10/10 05:32:22;;;;;;;29.67;23.40;;;14.90;99.90;;;;;;7374908;19;20025;-62
2023/10/10 05:34:52;;;;;;;29.80;23.90;;;14.90;99.90;;;;;;7379371;19;20026;-61
2023/10/10 05:37:18;;;;;;;32.10;23.90;;;14.90;99.90;;;;;;7378327;19;20017;-62
2023/10/10 05:39:46;;;;;;;29.33;20.48;;;14.80;99.90;;;;;;7376526;19;20051;-62
2023/10/10 05:42:20;;;;;;;28.27;22.98;;;14.80;99.90;;;;;;7374262;19;20057;-63
2023/10/10 05:44:49;;;;;;;26.58;21.10;;;14.80;99.90;;;;;;7373842;19;20056;-63
2023/10/10 05:47:17;;;;;;;29.92;23.77;;;14.70;99.90;;;;;;7372994;19;20038;-66
2023/10/10 05:49:43;;;;;;;32.75;25.35;;;14.70;99.90;;;;;;7371066;19;20017;-66
2023/10/10 05:52:10;;;;;;;29.40;23.60;;;14.70;99.90;;;;;;7377209;19;20370;-65
2023/10/10 05:54:36;;;;;;;30.75;25.00;;;14.70;99.90;;;;;;7372599;19;20017;-64
2023/10/10 05:57:02;;;;;;;29.98;23.15;;;14.60;99.90;;;;;;7372428;19;20030;-61
2023/10/10 05:59:28;;;;;;;31.60;23.58;;;14.60;99.90;;;;;;7370069;19;20572;-61
2023/10/10 06:01:55;;;;;;;34.28;24.85;;;14.60;99.90;;;;;;7379047;19;20015;-61
2023/10/10 06:04:21;;;;;;;34.35;25.27;;;14.60;99.90;;;;;;7375896;19;21088;-64
2023/10/10 06:06:48;;;;;;;38.78;26.05;;;14.50;99.90;;;;;;7376790;19;20026;-65
2023/10/10 06:09:26;;;;;;;32.60;25.55;;;14.50;99.90;;;;;;7373070;19;20022;-65
2023/10/10 06:11:54;;;;;;;41.50;28.45;;;14.50;99.90;;;;;;7368129;19;20496;-65
2023/10/10 06:14:21;;;;;;;36.15;26.77;;;14.50;99.90;;;;;;7372331;19;20022;-62
2023/10/10 06:16:47;;;;;;;36.10;25.70;;;14.60;99.90;;;;;;7373601;19;20035;-61
2023/10/10 06:19:20;;;;;;;37.97;27.98;;;14.60;99.90;;;;;;7375135;19;20840;-60
2023/10/10 06:21:47;;;;;;;44.20;28.35;;;14.60;99.90;;;;;;7375331;19;20102;-61
2023/10/10 06:24:13;;;;;;;38.25;29.42;;;14.60;99.90;;;;;;7373978;19;20026;-61
2023/10/10 06:26:45;;;;;;;39.03;28.02;;;14.70;99.90;;;;;;7375265;19;20022;-61
2023/10/10 06:29:16;;;;;;;38.13;27.58;;;14.70;99.90;;;;;;7372611;19;20011;-61
2023/10/10 06:31:44;;;;;;;42.20;30.80;;;14.80;99.90;;;;;;7373050;19;20056;-65
2023/10/10 06:34:22;;;;;;;43.00;28.48;;;14.80;99.90;;;;;;7372580;19;20427;-65
2023/10/10 06:36:50;;;;;;;42.00;28.25;;;14.90;99.90;;;;;;7372309;19;20018;-65
2023/10/10 06:39:32;;;;;;;44.15;30.50;;;15.00;99.90;;;;;;7375406;19;20054;-61
2023/10/10 06:41:59;;;;;;;37.17;28.17;;;15.10;99.90;;;;;;7370673;19;20022;-61
2023/10/10 06:44:33;;;;;;;37.13;29.10;;;15.20;99.90;;;;;;7373793;19;20025;-61
2023/10/10 06:47:10;;;;;;;39.72;29.38;;;15.20;99.90;;;;;;7373155;19;20052;-61
2023/10/10 06:49:43;;;;;;;39.20;28.40;;;15.40;99.90;;;;;;7374919;19;20050;-61
2023/10/10 06:52:17;;;;;;;37.97;30.00;;;15.40;99.90;;;;;;7374202;19;20011;-62
2023/10/10 06:54:53;;;;;;;35.75;29.05;;;15.50;99.90;;;;;;7374653;19;20101;-65
2023/10/10 06:57:41;;;;;;;37.20;28.88;;;15.60;99.90;;;;;;7369974;19;20795;-65
2023/10/10 07:00:28;;;;;;;37.33;30.23;;;15.70;99.90;;;;;;7372894;19;20022;-61
2023/10/10 07:02:58;;;;;;;34.50;29.02;;;15.70;99.90;;;;;;7374093;19;20384;-63
2023/10/10 07:05:33;;;;;;;37.07;28.37;;;15.80;99.90;;;;;;7371273;19;20407;-62
2023/10/10 07:08:19;;;;;;;35.47;29.33;;;15.90;99.90;;;;;;7373746;19;20302;-62
2023/10/10 07:10:46;;;;;;;38.67;30.40;;;15.90;99.90;;;;;;7372443;19;20022;-61
2023/10/10 07:13:14;;;;;;;33.15;29.55;;;16.00;99.90;;;;;;7371200;19;20026;-64
2023/10/10 07:15:50;;;;;;;40.00;28.73;;;16.00;99.90;;;;;;7371400;19;20043;-61
2023/10/10 07:18:23;;;;;;;38.70;30.40;;;16.00;99.90;;;;;;7374187;19;20352;-62
2023/10/10 07:21:30;;;;;;;35.35;29.33;;;16.10;99.90;;;;;;7370180;19;20041;-63
2023/10/10 07:24:13;;;;;;;38.30;29.95;;;16.00;99.90;;;;;;7372293;19;20025;-62
2023/10/10 07:26:43;;;;;;;34.65;28.08;;;16.10;99.90;;;;;;7372789;19;20749;-68
2023/10/10 07:29:26;;;;;;;38.83;29.65;;;16.10;99.90;;;;;;7373257;19;20022;-67
2023/10/10 07:31:58;;;;;;;44.85;32.58;;;16.10;99.90;;;;;;7371044;19;20374;-67
2023/10/10 07:34:35;;;;;;;39.17;32.08;;;16.20;99.90;;;;;;7372983;19;20022;-66
2023/10/10 07:37:08;;;;;;;44.70;33.40;;;16.20;99.90;;;;;;7367435;19;20026;-62
2023/10/10 07:39:36;;;;;;;48.08;36.15;;;16.20;99.90;;;;;;7372827;19;20022;-63
2023/10/10 07:42:09;;;;;;;46.42;35.42;;;16.20;99.90;;;;;;7368756;19;20042;-62
2023/10/10 07:44:36;;;;;;;47.13;35.30;;;16.20;99.90;;;;;;7373351;19;20360;-63
2023/10/10 07:49:39;;;;;;;56.05;40.70;;;16.30;99.90;;;;;;7373770;19;20464;-66
2023/10/10 07:52:06;;;;;;;56.70;40.70;;;16.30;99.90;;;;;;7370769;19;20058;-61
2023/10/10 07:54:43;;;;;;;59.78;43.28;;;16.40;99.90;;;;;;7375446;19;20035;-62
2023/10/10 07:57:22;;;;;;;58.28;41.78;;;16.40;99.90;;;;;;7367649;19;20490;-63
2023/10/10 07:59:54;;;;;;;60.70;40.20;;;16.40;99.90;;;;;;7374061;19;20021;-62
2023/10/10 08:04:58;;;;;;;56.10;40.58;;;16.60;99.90;;;;;;7371891;19;20046;-63
2023/10/10 08:07:24;;;;;;;61.25;43.65;;;16.50;99.90;;;;;;7371503;19;20018;-63
2023/10/10 08:10:13;;;;;;;57.70;42.67;;;16.50;99.90;;;;;;7365628;19;20668;-62
2023/10/10 08:12:38;;;;;;;57.10;42.72;;;16.40;99.90;;;;;;7364074;19;20478;-65
2023/10/10 08:15:19;;;;;;;57.88;42.85;;;16.40;99.90;;;;;;7368630;19;20090;-66
2023/10/10 08:17:52;;;;;;;63.55;44.63;;;16.40;99.90;;;;;;7370445;19;20057;-66
2023/10/10 08:23:08;;;;;;;66.13;46.53;;;16.40;99.90;;;;;;7369854;19;20030;-62
2023/10/10 08:25:37;;;;;;;66.80;47.38;;;16.40;99.90;;;;;;7370698;19;20018;-66
2023/10/10 08:28:04;;;;;;;67.47;49.08;;;16.40;99.90;;;;;;7368119;19;20046;-66
2023/10/10 08:30:32;;;;;;;64.90;48.55;;;16.40;99.90;;;;;;7370318;19;20022;-66
2023/10/10 08:32:59;;;;;;;67.85;50.80;;;16.50;99.90;;;;;;7370078;19;20015;-67
2023/10/10 08:35:29;;;;;;;65.97;49.80;;;16.60;99.90;;;;;;7368200;19;20082;-68
2023/10/10 08:37:56;;;;;;;70.65;49.95;;;16.60;99.90;;;;;;7366933;19;20026;-65
2023/10/10 08:40:25;;;;;;;65.35;49.50;;;16.60;99.90;;;;;;7373664;19;20022;-66
2023/10/10 08:42:51;;;;;;;69.53;51.03;;;16.70;99.90;;;;;;7366062;19;20052;-65
2023/10/10 08:45:25;;;;;;;64.30;48.65;;;17.00;99.90;;;;;;7366873;19;20023;-62
2023/10/10 08:48:01;;;;;;;67.05;48.20;;;17.10;99.90;;;;;;7371239;19;20029;-67
2023/10/10 08:50:28;;;;;;;62.92;47.40;;;17.40;99.90;;;;;;7367448;19;20038;-66
2023/10/10 08:52:54;;;;;;;59.88;47.05;;;17.90;99.90;;;;;;7370283;19;20055;-66
2023/10/10 08:55:28;;;;;;;65.72;46.40;;;18.60;99.90;;;;;;7369903;19;20023;-67
2023/10/10 08:57:57;;;;;;;57.45;45.85;;;19.00;99.90;;;;;;7369398;19;20053;-67
2023/10/10 09:00:27;;;;;;;52.60;44.65;;;19.50;99.90;;;;;;7368667;19;20082;-67
2023/10/10 09:02:57;;;;;;;52.85;43.55;;;20.00;99.90;;;;;;7369074;19;20486;-66
2023/10/10 09:05:25;;;;;;;50.75;41.80;;;19.70;99.90;;;;;;7368509;19;20082;-62
2023/10/10 09:07:53;;;;;;;54.45;42.70;;;19.50;99.90;;;;;;7371851;19;20094;-63
2023/10/10 09:10:29;;;;;;;53.70;44.22;;;19.40;99.90;;;;;;7364514;19;20104;-62
2023/10/10 09:12:56;;;;;;;52.90;45.35;;;19.40;99.90;;;;;;7371657;19;20669;-64
2023/10/10 09:15:24;;;;;;;52.58;45.05;;;19.20;99.90;;;;;;7372085;19;20014;-68
2023/10/10 09:17:55;;;;;;;51.85;45.08;;;19.10;99.90;;;;;;7370900;19;20110;-64
2023/10/10 09:20:29;;;;;;;51.22;44.78;;;19.00;99.90;;;;;;7365708;19;20018;-70
2023/10/10 09:23:11;;;;;;;48.45;43.17;;;19.20;99.90;;;;;;7370145;19;20082;-70
2023/10/10 09:25:48;;;;;;;50.35;43.65;;;20.00;99.90;;;;;;7365277;19;20030;-70
2023/10/10 09:28:18;;;;;;;51.40;41.78;;;20.90;99.90;;;;;;7369827;19;20011;-71
2023/10/10 09:30:50;;;;;;;46.47;41.40;;;21.80;99.90;;;;;;7365394;19;20116;-72
2023/10/10 09:33:27;;;;;;;45.25;39.00;;;22.00;99.90;;;;;;7368256;19;20070;-71
2023/10/10 09:36:08;;;;;;;43.60;37.63;;;22.20;99.90;;;;;;7368381;19;20105;-65
2023/10/10 09:38:45;;;;;;;44.25;39.55;;;22.10;99.90;;;;;;7364848;19;20022;-62
2023/10/10 09:58:01;;;;;;;44.10;34.85;;;22.60;99.90;;;;;;7376632;19;20383;-70
2023/10/10 10:00:45;;;;;;;41.45;34.72;;;22.90;99.90;;;;;;7370186;19;20030;-72
2023/10/10 10:06:02;;;;;;;39.55;35.45;;;23.60;99.90;;;;;;7377215;19;20026;-71
2023/10/10 10:08:47;;;;;;;38.20;34.20;;;23.80;99.90;;;;;;7374480;19;20018;-71
2023/10/10 10:11:26;;;;;;;38.70;34.58;;;23.60;99.90;;;;;;7369112;19;20074;-70
2023/10/10 10:13:52;;;;;;;39.30;33.47;;;23.40;99.90;;;;;;7371482;19;20048;-71
2023/10/10 10:16:46;;;;;;;37.60;32.85;;;23.20;99.90;;;;;;7377260;19;20067;-71
2023/10/10 10:19:17;;;;;;;36.83;32.72;;;23.10;99.90;;;;;;7376509;19;20399;-70
2023/10/10 10:21:56;;;;;;;35.85;31.08;;;23.50;99.90;;;;;;7373434;19;20024;-71
2023/10/10 10:24:33;;;;;;;32.92;29.60;;;23.80;99.90;;;;;;7371661;19;20022;-70
2023/10/10 10:27:22;;;;;;;33.78;30.10;;;23.70;99.90;;;;;;7373307;19;20460;-66
2023/10/10 10:29:54;;;;;;;31.73;27.33;;;23.80;99.90;;;;;;7376340;19;20491;-70
2023/10/10 10:32:23;;;;;;;31.23;26.33;;;24.10;99.90;;;;;;7371521;19;20026;-71
2023/10/10 10:34:56;;;;;;;31.83;26.95;;;23.70;99.90;;;;;;7374747;19;20481;-70
2023/10/10 10:37:28;;;;;;;30.92;25.42;;;24.10;99.90;;;;;;7375060;19;20596;-65
2023/10/10 10:42:46;;;;;;;27.80;24.08;;;24.60;99.90;;;;;;7374022;19;20022;-65
2023/10/10 10:45:34;;;;;;;26.77;22.45;;;25.30;99.90;;;;;;7376424;19;20025;-64
2023/10/10 10:48:11;;;;;;;25.50;22.77;;;25.20;99.90;;;;;;7378088;19;20026;-65
2023/10/10 10:50:43;;;;;;;28.58;23.17;;;25.50;99.90;;;;;;7375880;19;20036;-65
2023/10/10 10:53:31;;;;;;;27.73;23.85;;;26.00;99.90;;;;;;7375877;19;20018;-65
2023/10/10 11:01:17;;;;;;;24.75;21.52;;;26.50;99.90;;;;;;7375441;19;20480;-70
2023/10/10 11:03:44;;;;;;;25.50;21.48;;;26.50;99.90;;;;;;7367698;19;20093;-70
2023/10/10 11:06:14;;;;;;;27.65;22.08;;;26.50;99.90;;;;;;7376073;19;20032;-70
2023/10/10 11:08:52;;;;;;;24.00;21.30;;;26.30;99.90;;;;;;7372892;19;20022;-65
2023/10/10 11:14:19;;;;;;;26.73;22.88;;;25.40;99.90;;;;;;7371622;19;20032;-65
2023/10/10 11:16:46;;;;;;;28.98;21.92;;;25.10;99.90;;;;;;7373213;19;20655;-65
2023/10/10 11:21:57;;;;;;;23.77;20.75;;;24.60;99.90;;;;;;7373943;19;20010;-65
2023/10/10 11:24:31;;;;;;;24.58;21.02;;;24.50;99.90;;;;;;7370974;19;20018;-65
2023/10/10 11:29:47;;;;;;;28.27;22.13;;;23.80;99.90;;;;;;7374295;19;20562;-64
2023/10/10 11:32:24;;;;;;;27.67;23.13;;;23.80;99.90;;;;;;7376375;19;20053;-66
2023/10/10 11:35:22;;;;;;;25.77;21.58;;;24.10;99.90;;;;;;7374657;19;20049;-65
2023/10/10 11:37:59;;;;;;;26.52;20.73;;;24.90;99.90;;;;;;7371824;19;20034;-70
2023/10/10 11:40:36;;;;;;;24.95;20.08;;;26.00;99.90;;;;;;7368995;19;20021;-66
2023/10/10 11:43:17;;;;;;;26.35;20.98;;;26.50;99.90;;;;;;7373130;19;20411;-65
2023/10/10 11:45:53;;;;;;;28.77;21.38;;;27.30;99.90;;;;;;7376426;19;20782;-66
2023/10/10 11:48:19;;;;;;;26.13;19.73;;;27.40;99.90;;;;;;7373069;19;20377;-68
2023/10/10 11:50:51;;;;;;;24.70;18.98;;;28.40;99.90;;;;;;7372001;19;20038;-70
2023/10/10 11:53:24;;;;;;;21.45;18.17;;;28.90;98.00;;;;;;7370936;19;20082;-69
2023/10/10 11:56:04;;;;;;;21.58;18.92;;;28.70;95.50;;;;;;7370544;19;20018;-68
2023/10/10 11:58:36;;;;;;;21.45;19.20;;;28.20;96.60;;;;;;7368439;19;20022;-69
2023/10/10 12:01:06;;;;;;;23.55;19.77;;;27.60;97.70;;;;;;7368645;19;20777;-69
2023/10/10 12:03:41;;;;;;;25.23;20.00;;;27.20;98.20;;;;;;7370642;19;20026;-68
2023/10/10 12:06:14;;;;;;;21.98;18.45;;;26.90;99.10;;;;;;7372121;19;20046;-69
2023/10/10 12:08:45;;;;;;;26.35;19.67;;;26.50;99.90;;;;;;7371446;19;20567;-68
2023/10/10 12:11:12;;;;;;;22.58;19.02;;;26.10;99.90;;;;;;7369017;19;20050;-65
2023/10/10 12:13:43;;;;;;;25.92;20.00;;;25.90;99.90;;;;;;7367489;19;20042;-67
2023/10/10 12:16:25;;;;;;;23.58;19.52;;;25.50;99.90;;;;;;7372652;19;20026;-69
2023/10/10 12:18:55;;;;;;;25.15;21.17;;;25.30;99.90;;;;;;7367869;19;20052;-67
2023/10/10 12:21:22;;;;;;;24.92;19.88;;;25.10;99.90;;;;;;7369403;19;20022;-65
2023/10/10 12:23:55;;;;;;;23.88;20.08;;;25.00;99.90;;;;;;7369025;19;20013;-67
2023/10/10 12:26:22;;;;;;;24.23;21.08;;;25.00;99.90;;;;;;7371217;19;20015;-68
2023/10/10 12:28:52;;;;;;;25.67;21.02;;;24.90;99.90;;;;;;7368878;19;20089;-68
2023/10/10 12:31:23;;;;;;;25.27;19.55;;;24.80;99.90;;;;;;7368387;19;20070;-68
2023/10/10 12:33:53;;;;;;;22.08;18.52;;;25.30;99.90;;;;;;7372259;19;20018;-65
2023/10/10 12:36:28;;;;;;;21.52;17.70;;;26.10;99.90;;;;;;7373740;19;20006;-65
2023/10/10 12:38:55;;;;;;;18.92;16.30;;;27.00;99.90;;;;;;7375447;19;20022;-65
2023/10/10 12:41:21;;;;;;;19.67;15.65;;;28.10;99.90;;;;;;7370441;19;20025;-68
2023/10/10 12:43:51;;;;;;;21.70;15.93;;;28.50;97.90;;;;;;7371321;19;20050;-68
2023/10/10 12:46:20;;;;;;;21.35;14.88;;;28.50;95.80;;;;;;7375347;19;20018;-65
2023/10/10 12:48:51;;;;;;;20.67;16.35;;;27.50;94.90;;;;;;7371381;19;20828;-67
2023/10/10 12:51:19;;;;;;;20.17;16.48;;;26.20;97.30;;;;;;7374945;19;20381;-63
2023/10/10 12:53:46;;;;;;;20.15;15.95;;;25.20;99.00;;;;;;7372801;19;20026;-65
2023/10/10 12:56:17;;;;;;;22.70;17.38;;;24.50;99.90;;;;;;7369352;19;20573;-66
2023/10/10 12:58:51;;;;;;;;;;;23.80;99.90;;;;;;7368359;19;20369;-68
2023/10/10 13:01:32;;;;;;;20.92;17.23;;;23.30;99.90;;;;;;7368054;19;19918;-68
2023/10/10 13:03:59;;;;;;;22.55;17.33;;;23.10;99.90;;;;;;7372153;19;20015;-71
2023/10/10 13:06:28;;;;;;;23.77;17.60;;;22.90;99.90;;;;;;7372251;19;20022;-64
2023/10/10 13:11:32;;;;;;;25.10;19.95;;;22.50;99.90;;;;;;7377727;19;20026;-64
2023/10/10 13:14:09;;;;;;;26.05;21.23;;;22.50;99.90;;;;;;7369350;19;20033;-65
2023/10/10 13:19:09;;;;;;;27.00;20.40;;;22.40;99.90;;;;;;7376172;19;20364;-69
2023/10/10 13:21:36;;;;;;;29.70;22.65;;;22.30;99.90;;;;;;7375973;19;20354;-65
2023/10/10 13:24:03;;;;;;;27.52;21.45;;;22.20;99.90;;;;;;7375190;19;20010;-61
2023/10/10 13:26:31;;;;;;;25.70;20.48;;;22.00;99.90;;;;;;7375850;19;20018;-65
2023/10/10 13:29:01;;;;;;;25.17;19.70;;;22.10;99.90;;;;;;7380784;19;20577;-69
2023/10/10 13:31:29;;;;;;;27.38;19.10;;;22.10;99.90;;;;;;7379221;19;20010;-68
2023/10/10 13:33:58;;;;;;;23.48;18.27;;;22.00;99.90;;;;;;7381151;19;20017;-68
2023/10/10 13:36:25;;;;;;;41.35;36.63;;;22.00;99.90;;;;;;7380793;19;20014;-66
2023/10/10 13:38:58;;;;;;;94.45;84.78;;;22.00;99.90;;;;;;7382571;19;20014;-75
2023/10/10 13:41:28;;;;;;;38.45;31.55;;;22.10;99.90;;;;;;7376979;19;20031;-67
2023/10/10 13:44:02;;;;;;;24.58;18.15;;;22.20;99.90;;;;;;7385178;19;20014;-67
2023/10/10 13:46:34;;;;;;;27.17;21.85;;;22.30;99.90;;;;;;7393279;19;20018;-69
2023/10/10 13:49:08;;;;;;;30.55;26.88;;;22.50;99.90;;;;;;7386640;19;20961;-67
2023/10/10 13:51:40;;;;;;;33.95;26.60;;;22.60;99.90;;;;;;7381253;19;20029;-65
2023/10/10 13:54:07;;;;;;;25.23;19.83;;;22.70;99.90;;;;;;7376532;19;20077;-67
2023/10/10 13:56:33;;;;;;;27.73;23.73;;;22.70;99.90;;;;;;7381099;19;20006;-63
2023/10/10 13:59:01;;;;;;;21.08;17.98;;;22.60;99.90;;;;;;7384730;19;20331;-70
2023/10/10 14:04:01;;;;;;;21.90;16.38;;;22.40;99.90;;;;;;7377295;19;20034;-66
2023/10/10 14:06:33;;;;;;;39.05;33.47;;;22.30;99.90;;;;;;7376833;19;20022;-67
2023/10/10 14:09:03;;;;;;;22.80;17.85;;;22.30;99.90;;;;;;7376574;19;20518;-65
2023/10/10 14:11:32;;;;;;;23.00;18.60;;;22.30;99.90;;;;;;7373382;19;20022;-66
2023/10/10 14:13:59;;;;;;;22.67;19.02;;;22.20;99.90;;;;;;7378625;19;20792;-65
2023/10/10 14:16:25;;;;;;;26.23;22.08;;;22.10;99.90;;;;;;7377142;19;20025;-65
2023/10/10 14:18:52;;;;;;;21.58;16.13;;;22.10;99.90;;;;;;7376488;19;21504;-66
2023/10/10 14:21:25;;;;;;;27.52;19.42;;;22.10;99.90;;;;;;7390143;19;20113;-66
2023/10/10 14:24:04;;;;;;;23.55;17.52;;;22.10;99.90;;;;;;7391820;19;20702;-66
2023/10/10 14:26:33;;;;;;;51.90;43.42;;;22.20;99.90;;;;;;7381383;19;20613;-72
2023/10/10 14:29:08;;;;;;;24.73;17.98;;;22.40;99.90;;;;;;7383579;19;20044;-63
2023/10/10 14:31:42;;;;;;;30.38;25.88;;;22.40;99.90;;;;;;7375970;19;20516;-67
2023/10/10 14:34:12;;;;;;;27.35;21.63;;;22.40;99.90;;;;;;7390059;19;20787;-68
2023/10/10 14:36:39;;;;;;;31.73;27.20;;;22.40;99.90;;;;;;7376115;19;20014;-63
2023/10/10 14:39:09;;;;;;;22.00;18.83;;;22.40;99.90;;;;;;7376379;19;20035;-62
2023/10/10 14:41:35;;;;;;;25.38;19.38;;;22.40;99.90;;;;;;7373463;19;20025;-63
2023/10/10 14:44:03;;;;;;;29.50;24.02;;;22.40;99.90;;;;;;7374457;19;20529;-63
2023/10/10 14:46:31;;;;;;;23.35;18.00;;;22.50;99.90;;;;;;7374755;19;20078;-64
2023/10/10 14:49:05;;;;;;;21.58;18.63;;;22.50;99.90;;;;;;7374353;19;20029;-64
2023/10/10 14:51:36;;;;;;;25.80;19.38;;;22.50;99.90;;;;;;7374791;19;20035;-63
2023/10/10 14:54:11;;;;;;;20.92;17.13;;;22.50;99.90;;;;;;7378490;19;20031;-68
2023/10/10 14:56:45;;;;;;;21.63;18.17;;;22.40;99.90;;;;;;7377121;19;20019;-63
2023/10/10 14:59:31;;;;;;;20.83;15.95;;;22.40;99.90;;;;;;7387072;19;20015;-68
2023/10/10 15:01:59;;;;;;;23.20;17.88;;;22.40;99.90;;;;;;7375299;19;20334;-63
2023/10/10 15:04:29;;;;;;;20.55;16.50;;;22.30;99.90;;;;;;7377369;19;20491;-63
2023/10/10 15:06:57;;;;;;;22.13;16.92;;;22.30;99.90;;;;;;7371734;19;20675;-63
2023/10/10 15:09:25;;;;;;;18.10;14.50;;;22.10;99.90;;;;;;7374971;19;20636;-63
2023/10/10 15:12:01;;;;;;;19.92;14.88;;;22.10;99.90;;;;;;7380018;19;20021;-69
2023/10/10 15:14:31;;;;;;;18.05;14.48;;;21.90;99.90;;;;;;7391709;19;20400;-69
2023/10/10 15:16:58;;;;;;;18.25;15.40;;;21.80;99.90;;;;;;7386789;19;20018;-69
2023/10/10 15:19:25;;;;;;;21.25;13.65;;;21.70;99.90;;;;;;7387049;19;20769;-68
2023/10/10 15:21:51;;;;;;;24.17;18.33;;;21.60;99.90;;;;;;7385962;19;20383;-69
2023/10/10 15:24:19;;;;;;;18.70;15.70;;;21.50;99.90;;;;;;7390965;19;20074;-69
2023/10/10 15:26:47;;;;;;;18.05;14.75;;;21.50;99.90;;;;;;7391991;19;20424;-69
2023/10/10 15:29:16;;;;;;;19.30;14.35;;;21.40;99.90;;;;;;7382426;19;20021;-62
2023/10/10 15:31:42;;;;;;;23.25;18.08;;;21.40;99.90;;;;;;7375217;19;20027;-63
2023/10/10 15:34:11;;;;;;;17.27;14.80;;;21.30;99.90;;;;;;7372713;19;20014;-62
2023/10/10 15:36:38;;;;;;;21.98;16.83;;;21.20;99.90;;;;;;7372188;19;20014;-63
2023/10/10 15:39:08;;;;;;;28.45;21.80;;;21.10;99.90;;;;;;7370585;19;20022;-62
2023/10/10 15:41:35;;;;;;;23.75;20.27;;;21.10;99.90;;;;;;7379937;19;20056;-66
2023/10/10 15:44:04;;;;;;;22.42;15.00;;;21.00;99.90;;;;;;7389595;19;20018;-66
2023/10/10 15:46:32;;;;;;;20.30;15.18;;;21.00;99.90;;;;;;7384748;19;20015;-65
2023/10/10 15:49:02;;;;;;;21.65;15.52;;;20.90;99.90;;;;;;7387424;19;20734;-66
2023/10/10 15:51:30;;;;;;;19.00;14.98;;;20.90;99.90;;;;;;7383835;19;20010;-65
2023/10/10 15:53:56;;;;;;;20.65;16.58;;;20.80;99.90;;;;;;7380357;19;20018;-66
2023/10/10 15:56:29;;;;;;;20.20;14.93;;;20.80;99.90;;;;;;7385040;19;20759;-67
2023/10/10 15:58:56;;;;;;;24.25;19.70;;;20.70;99.90;;;;;;7384815;19;20022;-67
2023/10/10 16:01:27;;;;;;;37.10;33.05;;;20.60;99.90;;;;;;7385111;19;20018;-64
2023/10/10 16:04:00;;;;;;;56.58;50.50;;;20.60;99.90;;;;;;7385906;19;20022;-65
2023/10/10 16:06:30;;;;;;;19.60;15.32;;;20.60;99.90;;;;;;7386678;19;20015;-64